sensor_id;sensor_type;location;lat;lon;timestamp;temperature;humidity
53904;DHT22;39812;52.430;16.936;2022-10-22T00:00:11;11.20;99.90
53904;DHT22;39812;52.430;16.936;2022-10-22T00:02:37;11.20;99.90
53904;DHT22;39812;52.430;16.936;2022-10-22T00:05:02;11.20;99.90
53904;DHT22;39812;52.430;16.936;2022-10-22T00:07:28;11.20;99.90
53904;DHT22;39812;52.430;16.936;2022-10-22T00:09:53;11.30;99.90
53904;DHT22;39812;52.430;16.936;2022-10-22T00:12:19;11.20;99.90
53904;DHT22;39812;52.430;16.936;2022-10-22T00:14:44;11.20;99.90
53904;DHT22;39812;52.430;16.936;2022-10-22T00:17:10;11.20;99.90
53904;DHT22;39812;52.430;16.936;2022-10-22T00:19:35;11.20;99.90
53904;DHT22;39812;52.430;16.936;2022-10-22T00:22:01;11.30;99.90
53904;DHT22;39812;52.430;16.936;2022-10-22T00:24:30;11.30;99.90
53904;DHT22;39812;52.430;16.936;2022-10-22T00:26:56;11.30;99.90
53904;DHT22;39812;52.430;16.936;2022-10-22T00:29:21;11.30;99.90
53904;DHT22;39812;52.430;16.936;2022-10-22T00:31:47;11.30;99.90
53904;DHT22;39812;52.430;16.936;2022-10-22T00:34:17;11.20;99.90
53904;DHT22;39812;52.430;16.936;2022-10-22T00:36:44;11.30;99.90
53904;DHT22;39812;52.430;16.936;2022-10-22T00:39:10;11.30;99.90
53904;DHT22;39812;52.430;16.936;2022-10-22T00:41:38;11.30;99.90
53904;DHT22;39812;52.430;16.936;2022-10-22T00:44:04;11.20;99.90
53904;DHT22;39812;52.430;16.936;2022-10-22T00:46:30;11.30;99.90
53904;DHT22;39812;52.430;16.936;2022-10-22T00:48:57;11.20;99.90
53904;DHT22;39812;52.430;16.936;2022-10-22T00:51:28;11.20;99.90
53904;DHT22;39812;52.430;16.936;2022-10-22T00:53:56;11.20;99.90
53904;DHT22;39812;52.430;16.936;2022-10-22T00:56:24;11.20;99.90
53904;DHT22;39812;52.430;16.936;2022-10-22T00:58:56;11.20;99.90
53904;DHT22;39812;52.430;16.936;2022-10-22T01:01:25;11.20;99.90
53904;DHT22;39812;52.430;16.936;2022-10-22T01:03:51;11.20;99.90
53904;DHT22;39812;52.430;16.936;2022-10-22T01:06:32;11.20;99.90
53904;DHT22;39812;52.430;16.936;2022-10-22T01:12:02;11.20;99.90
53904;DHT22;39812;52.430;16.936;2022-10-22T01:17:48;11.20;99.90
53904;DHT22;39812;52.430;16.936;2022-10-22T01:26:22;11.20;99.90
53904;DHT22;39812;52.430;16.936;2022-10-22T01:29:02;11.20;99.90
53904;DHT22;39812;52.430;16.936;2022-10-22T01:31:55;11.20;99.90
53904;DHT22;39812;52.430;16.936;2022-10-22T01:34:24;11.20;99.90
53904;DHT22;39812;52.430;16.936;2022-10-22T01:36:50;11.20;99.90
53904;DHT22;39812;52.430;16.936;2022-10-22T01:39:18;11.20;99.90
53904;DHT22;39812;52.430;16.936;2022-10-22T01:41:44;11.20;99.90
53904;DHT22;39812;52.430;16.936;2022-10-22T01:44:23;11.20;99.90
53904;DHT22;39812;52.430;16.936;2022-10-22T01:46:50;11.20;99.90
53904;DHT22;39812;52.430;16.936;2022-10-22T01:58:12;11.20;99.90
53904;DHT22;39812;52.430;16.936;2022-10-22T02:01:04;11.20;99.90
53904;DHT22;39812;52.430;16.936;2022-10-22T02:03:43;11.20;99.90
53904;DHT22;39812;52.430;16.936;2022-10-22T02:06:18;11.20;99.90
53904;DHT22;39812;52.430;16.936;2022-10-22T02:08:45;11.20;99.90
53904;DHT22;39812;52.430;16.936;2022-10-22T02:11:12;11.20;99.90
53904;DHT22;39812;52.430;16.936;2022-10-22T02:13:43;11.10;99.90
53904;DHT22;39812;52.430;16.936;2022-10-22T02:16:12;11.10;99.90
53904;DHT22;39812;52.430;16.936;2022-10-22T02:18:42;11.10;99.90
53904;DHT22;39812;52.430;16.936;2022-10-22T02:21:09;11.20;99.90
53904;DHT22;39812;52.430;16.936;2022-10-22T02:23:35;11.10;99.90
53904;DHT22;39812;52.430;16.936;2022-10-22T02:26:08;11.10;99.90
53904;DHT22;39812;52.430;16.936;2022-10-22T02:28:36;11.10;99.90
53904;DHT22;39812;52.430;16.936;2022-10-22T02:31:20;11.10;99.90
53904;DHT22;39812;52.430;16.936;2022-10-22T02:33:49;11.10;99.90
53904;DHT22;39812;52.430;16.936;2022-10-22T02:36:17;11.10;99.90
53904;DHT22;39812;52.430;16.936;2022-10-22T02:38:45;11.10;99.90
53904;DHT22;39812;52.430;16.936;2022-10-22T02:41:11;11.10;99.90
53904;DHT22;39812;52.430;16.936;2022-10-22T02:43:48;11.10;99.90
53904;DHT22;39812;52.430;16.936;2022-10-22T02:46:14;11.10;99.90
53904;DHT22;39812;52.430;16.936;2022-10-22T02:48:39;11.10;99.90
53904;DHT22;39812;52.430;16.936;2022-10-22T02:51:05;11.10;99.90
53904;DHT22;39812;52.430;16.936;2022-10-22T02:53:30;11.10;99.90
53904;DHT22;39812;52.430;16.936;2022-10-22T02:55:56;11.20;99.90
53904;DHT22;39812;52.430;16.936;2022-10-22T02:58:21;11.10;99.90
53904;DHT22;39812;52.430;16.936;2022-10-22T03:00:47;11.10;99.90
53904;DHT22;39812;52.430;16.936;2022-10-22T03:03:13;11.10;99.90
53904;DHT22;39812;52.430;16.936;2022-10-22T03:05:38;11.10;99.90
53904;DHT22;39812;52.430;16.936;2022-10-22T03:08:04;11.10;99.90
53904;DHT22;39812;52.430;16.936;2022-10-22T03:10:29;11.10;99.90
53904;DHT22;39812;52.430;16.936;2022-10-22T03:12:55;11.10;99.90
53904;DHT22;39812;52.430;16.936;2022-10-22T03:15:20;11.10;99.90
53904;DHT22;39812;52.430;16.936;2022-10-22T03:17:46;11.10;99.90
53904;DHT22;39812;52.430;16.936;2022-10-22T03:20:11;11.10;99.90
53904;DHT22;39812;52.430;16.936;2022-10-22T03:22:38;11.20;99.90
53904;DHT22;39812;52.430;16.936;2022-10-22T03:25:07;11.10;99.90
53904;DHT22;39812;52.430;16.936;2022-10-22T03:27:36;11.10;99.90
53904;DHT22;39812;52.430;16.936;2022-10-22T03:30:02;11.20;99.90
53904;DHT22;39812;52.430;16.936;2022-10-22T03:32:28;11.10;99.90
53904;DHT22;39812;52.430;16.936;2022-10-22T03:34:53;11.20;99.90
53904;DHT22;39812;52.430;16.936;2022-10-22T03:37:19;11.20;99.90
53904;DHT22;39812;52.430;16.936;2022-10-22T03:39:45;11.20;99.90
53904;DHT22;39812;52.430;16.936;2022-10-22T03:42:11;11.10;99.90
53904;DHT22;39812;52.430;16.936;2022-10-22T03:44:38;11.10;99.90
53904;DHT22;39812;52.430;16.936;2022-10-22T03:47:05;11.10;99.90
53904;DHT22;39812;52.430;16.936;2022-10-22T03:49:30;11.10;99.90
53904;DHT22;39812;52.430;16.936;2022-10-22T03:51:56;11.20;99.90
53904;DHT22;39812;52.430;16.936;2022-10-22T03:54:21;11.10;99.90
53904;DHT22;39812;52.430;16.936;2022-10-22T03:56:47;11.20;99.90
53904;DHT22;39812;52.430;16.936;2022-10-22T03:59:12;11.20;99.90
53904;DHT22;39812;52.430;16.936;2022-10-22T04:01:38;11.20;99.90
53904;DHT22;39812;52.430;16.936;2022-10-22T04:04:04;11.20;99.90
53904;DHT22;39812;52.430;16.936;2022-10-22T04:06:29;11.20;99.90
53904;DHT22;39812;52.430;16.936;2022-10-22T04:08:55;11.20;99.90
53904;DHT22;39812;52.430;16.936;2022-10-22T04:11:20;11.20;99.90
53904;DHT22;39812;52.430;16.936;2022-10-22T04:13:46;11.20;99.90
53904;DHT22;39812;52.430;16.936;2022-10-22T04:16:15;11.20;99.90
53904;DHT22;39812;52.430;16.936;2022-10-22T04:18:42;11.20;99.90
53904;DHT22;39812;52.430;16.936;2022-10-22T04:21:09;11.20;99.90
53904;DHT22;39812;52.430;16.936;2022-10-22T04:23:35;11.20;99.90
53904;DHT22;39812;52.430;16.936;2022-10-22T04:26:03;11.20;99.90
53904;DHT22;39812;52.430;16.936;2022-10-22T04:28:29;11.20;99.90
53904;DHT22;39812;52.430;16.936;2022-10-22T04:30:54;11.20;99.90
53904;DHT22;39812;52.430;16.936;2022-10-22T04:33:20;11.20;99.90
53904;DHT22;39812;52.430;16.936;2022-10-22T04:35:46;11.20;99.90
53904;DHT22;39812;52.430;16.936;2022-10-22T04:38:11;11.20;99.90
53904;DHT22;39812;52.430;16.936;2022-10-22T04:40:37;11.20;99.90
53904;DHT22;39812;52.430;16.936;2022-10-22T04:43:02;11.20;99.90
53904;DHT22;39812;52.430;16.936;2022-10-22T04:45:28;11.20;99.90
53904;DHT22;39812;52.430;16.936;2022-10-22T04:47:53;11.20;99.90
53904;DHT22;39812;52.430;16.936;2022-10-22T04:50:19;11.30;99.90
53904;DHT22;39812;52.430;16.936;2022-10-22T04:52:44;11.30;99.90
53904;DHT22;39812;52.430;16.936;2022-10-22T04:55:10;11.20;99.90
53904;DHT22;39812;52.430;16.936;2022-10-22T04:57:35;11.30;99.90
53904;DHT22;39812;52.430;16.936;2022-10-22T05:00:01;11.20;99.90
53904;DHT22;39812;52.430;16.936;2022-10-22T05:02:26;11.20;99.90
53904;DHT22;39812;52.430;16.936;2022-10-22T05:04:52;11.20;99.90
53904;DHT22;39812;52.430;16.936;2022-10-22T05:07:17;11.20;99.90
53904;DHT22;39812;52.430;16.936;2022-10-22T05:09:43;11.30;99.90
53904;DHT22;39812;52.430;16.936;2022-10-22T05:12:08;11.30;99.90
53904;DHT22;39812;52.430;16.936;2022-10-22T05:14:34;11.30;99.90
53904;DHT22;39812;52.430;16.936;2022-10-22T05:16:59;11.30;99.90
53904;DHT22;39812;52.430;16.936;2022-10-22T05:19:26;11.30;99.90
53904;DHT22;39812;52.430;16.936;2022-10-22T05:21:54;11.30;99.90
53904;DHT22;39812;52.430;16.936;2022-10-22T05:24:20;11.30;99.90
53904;DHT22;39812;52.430;16.936;2022-10-22T05:26:51;11.30;99.90
53904;DHT22;39812;52.430;16.936;2022-10-22T05:29:17;11.30;99.90
53904;DHT22;39812;52.430;16.936;2022-10-22T05:31:43;11.30;99.90
53904;DHT22;39812;52.430;16.936;2022-10-22T05:34:09;11.30;99.90
53904;DHT22;39812;52.430;16.936;2022-10-22T05:36:34;11.30;99.90
53904;DHT22;39812;52.430;16.936;2022-10-22T05:39:00;11.30;99.90
53904;DHT22;39812;52.430;16.936;2022-10-22T05:41:26;11.30;99.90
53904;DHT22;39812;52.430;16.936;2022-10-22T05:43:56;11.30;99.90
53904;DHT22;39812;52.430;16.936;2022-10-22T05:46:24;11.30;99.90
53904;DHT22;39812;52.430;16.936;2022-10-22T05:48:51;11.30;99.90
53904;DHT22;39812;52.430;16.936;2022-10-22T05:51:18;11.40;99.90
53904;DHT22;39812;52.430;16.936;2022-10-22T05:53:44;11.30;99.90
53904;DHT22;39812;52.430;16.936;2022-10-22T05:56:12;11.40;99.90
53904;DHT22;39812;52.430;16.936;2022-10-22T05:58:38;11.40;99.90
53904;DHT22;39812;52.430;16.936;2022-10-22T06:03:37;11.50;99.90
53904;DHT22;39812;52.430;16.936;2022-10-22T06:06:18;11.50;99.90
53904;DHT22;39812;52.430;16.936;2022-10-22T06:08:46;11.50;99.90
53904;DHT22;39812;52.430;16.936;2022-10-22T06:11:13;11.60;99.90
53904;DHT22;39812;52.430;16.936;2022-10-22T06:13:38;11.60;99.90
53904;DHT22;39812;52.430;16.936;2022-10-22T06:16:04;11.60;99.90
53904;DHT22;39812;52.430;16.936;2022-10-22T06:18:29;11.60;99.90
53904;DHT22;39812;52.430;16.936;2022-10-22T06:20:55;11.60;99.90
53904;DHT22;39812;52.430;16.936;2022-10-22T06:23:20;11.70;99.90
53904;DHT22;39812;52.430;16.936;2022-10-22T06:25:55;11.70;99.90
53904;DHT22;39812;52.430;16.936;2022-10-22T06:28:21;11.70;99.90
53904;DHT22;39812;52.430;16.936;2022-10-22T06:30:46;11.60;99.90
53904;DHT22;39812;52.430;16.936;2022-10-22T06:33:11;11.60;99.90
53904;DHT22;39812;52.430;16.936;2022-10-22T06:35:37;11.70;99.90
53904;DHT22;39812;52.430;16.936;2022-10-22T06:38:02;11.70;99.90
53904;DHT22;39812;52.430;16.936;2022-10-22T06:40:28;11.70;99.90
53904;DHT22;39812;52.430;16.936;2022-10-22T06:42:53;11.80;99.90
53904;DHT22;39812;52.430;16.936;2022-10-22T06:45:19;11.80;99.90
53904;DHT22;39812;52.430;16.936;2022-10-22T06:47:44;11.80;99.90
53904;DHT22;39812;52.430;16.936;2022-10-22T06:50:10;11.80;99.90
53904;DHT22;39812;52.430;16.936;2022-10-22T06:52:36;12.00;99.90
53904;DHT22;39812;52.430;16.936;2022-10-22T06:55:01;11.90;99.90
53904;DHT22;39812;52.430;16.936;2022-10-22T06:57:29;11.90;99.90
53904;DHT22;39812;52.430;16.936;2022-10-22T06:59:54;12.00;99.90
53904;DHT22;39812;52.430;16.936;2022-10-22T07:02:20;12.10;99.90
53904;DHT22;39812;52.430;16.936;2022-10-22T07:04:45;12.10;99.90
53904;DHT22;39812;52.430;16.936;2022-10-22T07:07:11;12.20;99.90
53904;DHT22;39812;52.430;16.936;2022-10-22T07:09:36;12.20;99.90
53904;DHT22;39812;52.430;16.936;2022-10-22T07:12:03;12.30;99.90
53904;DHT22;39812;52.430;16.936;2022-10-22T07:14:29;12.20;99.90
53904;DHT22;39812;52.430;16.936;2022-10-22T07:16:54;12.20;99.90
53904;DHT22;39812;52.430;16.936;2022-10-22T07:19:20;12.30;99.90
53904;DHT22;39812;52.430;16.936;2022-10-22T07:21:45;12.30;99.90
53904;DHT22;39812;52.430;16.936;2022-10-22T07:24:11;12.30;99.90
53904;DHT22;39812;52.430;16.936;2022-10-22T07:26:36;12.40;99.90
53904;DHT22;39812;52.430;16.936;2022-10-22T07:29:02;12.40;99.90
53904;DHT22;39812;52.430;16.936;2022-10-22T07:31:29;12.40;99.90
53904;DHT22;39812;52.430;16.936;2022-10-22T07:33:54;12.30;99.90
53904;DHT22;39812;52.430;16.936;2022-10-22T07:36:20;12.30;99.90
53904;DHT22;39812;52.430;16.936;2022-10-22T07:38:47;12.40;99.90
53904;DHT22;39812;52.430;16.936;2022-10-22T07:41:14;12.40;99.90
53904;DHT22;39812;52.430;16.936;2022-10-22T07:43:40;12.50;99.90
53904;DHT22;39812;52.430;16.936;2022-10-22T07:46:06;12.50;99.90
53904;DHT22;39812;52.430;16.936;2022-10-22T07:48:34;12.50;99.90
53904;DHT22;39812;52.430;16.936;2022-10-22T07:50:59;12.50;99.90
53904;DHT22;39812;52.430;16.936;2022-10-22T07:53:25;12.50;99.90
53904;DHT22;39812;52.430;16.936;2022-10-22T07:55:51;12.50;99.90
53904;DHT22;39812;52.430;16.936;2022-10-22T07:58:17;12.60;99.90
53904;DHT22;39812;52.430;16.936;2022-10-22T08:00:43;12.60;99.90
53904;DHT22;39812;52.430;16.936;2022-10-22T08:03:13;12.60;99.90
53904;DHT22;39812;52.430;16.936;2022-10-22T08:05:39;12.70;99.90
53904;DHT22;39812;52.430;16.936;2022-10-22T08:08:05;12.70;99.90
53904;DHT22;39812;52.430;16.936;2022-10-22T08:10:31;12.70;99.90
53904;DHT22;39812;52.430;16.936;2022-10-22T08:12:57;12.70;99.90
53904;DHT22;39812;52.430;16.936;2022-10-22T08:15:23;12.70;99.90
53904;DHT22;39812;52.430;16.936;2022-10-22T08:17:50;12.70;99.90
53904;DHT22;39812;52.430;16.936;2022-10-22T08:20:16;12.70;99.90
53904;DHT22;39812;52.430;16.936;2022-10-22T08:22:41;12.70;99.90
53904;DHT22;39812;52.430;16.936;2022-10-22T08:25:07;12.80;99.90
53904;DHT22;39812;52.430;16.936;2022-10-22T08:27:32;12.70;99.90
53904;DHT22;39812;52.430;16.936;2022-10-22T08:29:58;12.70;99.90
53904;DHT22;39812;52.430;16.936;2022-10-22T08:32:23;12.70;99.90
53904;DHT22;39812;52.430;16.936;2022-10-22T08:34:49;12.70;99.90
53904;DHT22;39812;52.430;16.936;2022-10-22T08:37:14;12.70;99.90
53904;DHT22;39812;52.430;16.936;2022-10-22T08:39:41;12.80;99.90
53904;DHT22;39812;52.430;16.936;2022-10-22T08:42:39;12.80;99.90
53904;DHT22;39812;52.430;16.936;2022-10-22T08:50:38;13.10;99.90
53904;DHT22;39812;52.430;16.936;2022-10-22T08:53:11;13.10;99.90
53904;DHT22;39812;52.430;16.936;2022-10-22T08:55:37;13.20;99.90
53904;DHT22;39812;52.430;16.936;2022-10-22T09:01:05;13.40;99.90
53904;DHT22;39812;52.430;16.936;2022-10-22T09:03:51;13.40;99.90
53904;DHT22;39812;52.430;16.936;2022-10-22T09:06:23;13.50;99.90
53904;DHT22;39812;52.430;16.936;2022-10-22T09:08:49;13.60;99.90
53904;DHT22;39812;52.430;16.936;2022-10-22T09:11:27;13.60;99.90
53904;DHT22;39812;52.430;16.936;2022-10-22T09:13:55;13.70;99.90
53904;DHT22;39812;52.430;16.936;2022-10-22T09:19:43;14.00;99.90
53904;DHT22;39812;52.430;16.936;2022-10-22T09:22:22;14.20;99.90
53904;DHT22;39812;52.430;16.936;2022-10-22T09:25:21;14.30;99.90
53904;DHT22;39812;52.430;16.936;2022-10-22T09:27:48;14.30;99.90
53904;DHT22;39812;52.430;16.936;2022-10-22T09:30:22;14.20;99.90
53904;DHT22;39812;52.430;16.936;2022-10-22T09:33:24;14.20;99.90
53904;DHT22;39812;52.430;16.936;2022-10-22T09:35:56;14.10;99.90
53904;DHT22;39812;52.430;16.936;2022-10-22T09:38:26;14.10;99.90
53904;DHT22;39812;52.430;16.936;2022-10-22T09:40:54;14.20;99.90
53904;DHT22;39812;52.430;16.936;2022-10-22T09:43:20;14.30;99.90
53904;DHT22;39812;52.430;16.936;2022-10-22T09:45:46;14.40;99.90
53904;DHT22;39812;52.430;16.936;2022-10-22T09:48:26;14.50;99.90
53904;DHT22;39812;52.430;16.936;2022-10-22T09:51:03;14.60;99.90
53904;DHT22;39812;52.430;16.936;2022-10-22T09:53:34;14.70;99.90
53904;DHT22;39812;52.430;16.936;2022-10-22T09:56:02;14.70;99.90
53904;DHT22;39812;52.430;16.936;2022-10-22T09:58:41;14.70;99.90
53904;DHT22;39812;52.430;16.936;2022-10-22T10:01:07;14.70;99.90
53904;DHT22;39812;52.430;16.936;2022-10-22T10:03:32;14.50;99.90
53904;DHT22;39812;52.430;16.936;2022-10-22T10:05:59;14.30;99.90
53904;DHT22;39812;52.430;16.936;2022-10-22T10:08:25;14.20;99.90
53904;DHT22;39812;52.430;16.936;2022-10-22T10:11:16;13.90;99.90
53904;DHT22;39812;52.430;16.936;2022-10-22T10:13:53;13.80;99.90
53904;DHT22;39812;52.430;16.936;2022-10-22T10:19:37;13.70;99.90
53904;DHT22;39812;52.430;16.936;2022-10-22T10:22:12;13.70;99.90
53904;DHT22;39812;52.430;16.936;2022-10-22T10:24:49;13.60;99.90
53904;DHT22;39812;52.430;16.936;2022-10-22T10:27:24;13.50;99.90
53904;DHT22;39812;52.430;16.936;2022-10-22T10:35:29;13.00;99.90
53904;DHT22;39812;52.430;16.936;2022-10-22T10:38:37;12.90;99.90
53904;DHT22;39812;52.430;16.936;2022-10-22T10:43:50;12.80;99.90
53904;DHT22;39812;52.430;16.936;2022-10-22T10:46:35;12.80;99.90
53904;DHT22;39812;52.430;16.936;2022-10-22T10:49:19;12.80;99.90
53904;DHT22;39812;52.430;16.936;2022-10-22T10:52:20;12.80;99.90
53904;DHT22;39812;52.430;16.936;2022-10-22T10:55:02;12.80;99.90
53904;DHT22;39812;52.430;16.936;2022-10-22T11:00:17;12.80;99.90
53904;DHT22;39812;52.430;16.936;2022-10-22T11:03:00;12.90;99.90
53904;DHT22;39812;52.430;16.936;2022-10-22T11:05:30;12.90;99.90
53904;DHT22;39812;52.430;16.936;2022-10-22T11:08:20;13.00;99.90
53904;DHT22;39812;52.430;16.936;2022-10-22T11:11:05;12.90;99.90
53904;DHT22;39812;52.430;16.936;2022-10-22T11:14:11;13.00;99.90
53904;DHT22;39812;52.430;16.936;2022-10-22T11:16:39;13.10;99.90
53904;DHT22;39812;52.430;16.936;2022-10-22T11:19:29;13.20;99.90
53904;DHT22;39812;52.430;16.936;2022-10-22T11:22:08;13.30;99.90
53904;DHT22;39812;52.430;16.936;2022-10-22T11:24:55;13.40;99.90
53904;DHT22;39812;52.430;16.936;2022-10-22T11:27:55;13.40;99.90
53904;DHT22;39812;52.430;16.936;2022-10-22T11:30:23;13.50;99.90
53904;DHT22;39812;52.430;16.936;2022-10-22T11:32:54;13.50;99.90
53904;DHT22;39812;52.430;16.936;2022-10-22T11:35:24;13.40;99.90
53904;DHT22;39812;52.430;16.936;2022-10-22T11:37:50;13.40;99.90
53904;DHT22;39812;52.430;16.936;2022-10-22T11:40:21;13.50;99.90
53904;DHT22;39812;52.430;16.936;2022-10-22T11:43:03;13.60;99.90
53904;DHT22;39812;52.430;16.936;2022-10-22T11:45:41;13.70;99.90
53904;DHT22;39812;52.430;16.936;2022-10-22T11:53:34;13.80;99.90
53904;DHT22;39812;52.430;16.936;2022-10-22T11:56:21;13.70;99.90
53904;DHT22;39812;52.430;16.936;2022-10-22T11:58:49;13.50;99.90
53904;DHT22;39812;52.430;16.936;2022-10-22T12:01:23;13.50;99.90
53904;DHT22;39812;52.430;16.936;2022-10-22T12:04:14;13.50;99.90
53904;DHT22;39812;52.430;16.936;2022-10-22T12:06:53;13.60;99.90
53904;DHT22;39812;52.430;16.936;2022-10-22T12:09:22;13.60;99.90
53904;DHT22;39812;52.430;16.936;2022-10-22T12:11:49;13.60;99.90
53904;DHT22;39812;52.430;16.936;2022-10-22T12:14:19;13.60;99.90
53904;DHT22;39812;52.430;16.936;2022-10-22T12:16:58;13.60;99.90
53904;DHT22;39812;52.430;16.936;2022-10-22T12:19:34;13.70;99.90
53904;DHT22;39812;52.430;16.936;2022-10-22T12:24:37;13.90;99.90
53904;DHT22;39812;52.430;16.936;2022-10-22T12:29:56;13.90;99.90
53904;DHT22;39812;52.430;16.936;2022-10-22T12:32:28;13.80;99.90
53904;DHT22;39812;52.430;16.936;2022-10-22T12:34:56;13.70;99.90
53904;DHT22;39812;52.430;16.936;2022-10-22T12:37:28;13.60;99.90
53904;DHT22;39812;52.430;16.936;2022-10-22T12:39:53;13.50;99.90
53904;DHT22;39812;52.430;16.936;2022-10-22T12:42:19;13.50;99.90
53904;DHT22;39812;52.430;16.936;2022-10-22T12:44:46;13.50;99.90
53904;DHT22;39812;52.430;16.936;2022-10-22T12:47:16;13.40;99.90
53904;DHT22;39812;52.430;16.936;2022-10-22T12:49:45;13.50;99.90
53904;DHT22;39812;52.430;16.936;2022-10-22T12:52:16;13.50;99.90
53904;DHT22;39812;52.430;16.936;2022-10-22T12:54:44;13.60;99.90
53904;DHT22;39812;52.430;16.936;2022-10-22T12:57:14;13.60;99.90
53904;DHT22;39812;52.430;16.936;2022-10-22T12:59:41;13.60;99.90
53904;DHT22;39812;52.430;16.936;2022-10-22T13:02:34;13.60;99.90
53904;DHT22;39812;52.430;16.936;2022-10-22T13:05:13;13.60;99.90
53904;DHT22;39812;52.430;16.936;2022-10-22T13:07:46;13.50;99.90
53904;DHT22;39812;52.430;16.936;2022-10-22T13:10:24;13.50;99.90
53904;DHT22;39812;52.430;16.936;2022-10-22T13:12:54;13.40;99.90
53904;DHT22;39812;52.430;16.936;2022-10-22T13:20:30;13.40;99.90
53904;DHT22;39812;52.430;16.936;2022-10-22T13:23:16;13.40;99.90
53904;DHT22;39812;52.430;16.936;2022-10-22T13:25:42;13.50;99.90
53904;DHT22;39812;52.430;16.936;2022-10-22T13:28:18;13.40;99.90
53904;DHT22;39812;52.430;16.936;2022-10-22T13:30:56;13.50;99.90
53904;DHT22;39812;52.430;16.936;2022-10-22T13:35:52;13.50;99.90
53904;DHT22;39812;52.430;16.936;2022-10-22T13:38:19;13.50;99.90
53904;DHT22;39812;52.430;16.936;2022-10-22T13:40:45;13.40;99.90
53904;DHT22;39812;52.430;16.936;2022-10-22T13:43:12;13.40;99.90
53904;DHT22;39812;52.430;16.936;2022-10-22T13:45:37;13.40;99.90
53904;DHT22;39812;52.430;16.936;2022-10-22T13:48:03;13.50;99.90
53904;DHT22;39812;52.430;16.936;2022-10-22T13:50:29;13.60;99.90
53904;DHT22;39812;52.430;16.936;2022-10-22T13:52:57;13.60;99.90
53904;DHT22;39812;52.430;16.936;2022-10-22T13:55:27;13.70;99.90
53904;DHT22;39812;52.430;16.936;2022-10-22T13:58:00;13.70;99.90
53904;DHT22;39812;52.430;16.936;2022-10-22T14:00:28;13.60;99.90
53904;DHT22;39812;52.430;16.936;2022-10-22T14:02:55;13.60;99.90
53904;DHT22;39812;52.430;16.936;2022-10-22T14:05:22;13.60;99.90
53904;DHT22;39812;52.430;16.936;2022-10-22T14:07:47;13.70;99.90
53904;DHT22;39812;52.430;16.936;2022-10-22T14:10:19;13.70;99.90
53904;DHT22;39812;52.430;16.936;2022-10-22T14:12:46;13.70;99.90
53904;DHT22;39812;52.430;16.936;2022-10-22T14:15:13;13.70;99.90
53904;DHT22;39812;52.430;16.936;2022-10-22T14:17:41;13.80;99.90
53904;DHT22;39812;52.430;16.936;2022-10-22T14:20:13;13.80;99.90
53904;DHT22;39812;52.430;16.936;2022-10-22T14:22:39;13.80;99.90
53904;DHT22;39812;52.430;16.936;2022-10-22T14:25:05;13.80;99.90
53904;DHT22;39812;52.430;16.936;2022-10-22T14:27:30;13.70;99.90
53904;DHT22;39812;52.430;16.936;2022-10-22T14:29:56;13.70;99.90
53904;DHT22;39812;52.430;16.936;2022-10-22T14:32:22;13.70;99.90
53904;DHT22;39812;52.430;16.936;2022-10-22T14:34:47;13.70;99.90
53904;DHT22;39812;52.430;16.936;2022-10-22T14:37:18;13.70;99.90
53904;DHT22;39812;52.430;16.936;2022-10-22T14:39:45;13.70;99.90
53904;DHT22;39812;52.430;16.936;2022-10-22T14:42:12;13.70;99.90
53904;DHT22;39812;52.430;16.936;2022-10-22T14:44:38;13.70;99.90
53904;DHT22;39812;52.430;16.936;2022-10-22T14:47:04;13.70;99.90
53904;DHT22;39812;52.430;16.936;2022-10-22T14:49:29;13.70;99.90
53904;DHT22;39812;52.430;16.936;2022-10-22T14:51:55;13.70;99.90
53904;DHT22;39812;52.430;16.936;2022-10-22T14:54:20;13.70;99.90
53904;DHT22;39812;52.430;16.936;2022-10-22T14:56:45;13.70;99.90
53904;DHT22;39812;52.430;16.936;2022-10-22T14:59:11;13.70;99.90
53904;DHT22;39812;52.430;16.936;2022-10-22T15:01:36;13.80;99.90
53904;DHT22;39812;52.430;16.936;2022-10-22T15:04:03;13.80;99.90
53904;DHT22;39812;52.430;16.936;2022-10-22T15:06:29;13.90;99.90
53904;DHT22;39812;52.430;16.936;2022-10-22T15:08:54;13.90;99.90
53904;DHT22;39812;52.430;16.936;2022-10-22T15:11:20;13.90;99.90
53904;DHT22;39812;52.430;16.936;2022-10-22T15:13:46;13.80;99.90
53904;DHT22;39812;52.430;16.936;2022-10-22T15:16:14;13.80;99.90
53904;DHT22;39812;52.430;16.936;2022-10-22T15:18:40;13.80;99.90
53904;DHT22;39812;52.430;16.936;2022-10-22T15:21:10;13.80;99.90
53904;DHT22;39812;52.430;16.936;2022-10-22T15:23:37;13.80;99.90
53904;DHT22;39812;52.430;16.936;2022-10-22T15:26:06;13.80;99.90
53904;DHT22;39812;52.430;16.936;2022-10-22T15:28:32;13.70;99.90
53904;DHT22;39812;52.430;16.936;2022-10-22T15:30:59;13.80;99.90
53904;DHT22;39812;52.430;16.936;2022-10-22T15:33:26;13.70;99.90
53904;DHT22;39812;52.430;16.936;2022-10-22T15:35:52;13.80;99.90
53904;DHT22;39812;52.430;16.936;2022-10-22T15:38:18;13.70;99.90
53904;DHT22;39812;52.430;16.936;2022-10-22T15:40:43;13.80;99.90
53904;DHT22;39812;52.430;16.936;2022-10-22T15:43:09;13.70;99.90
53904;DHT22;39812;52.430;16.936;2022-10-22T15:45:35;13.70;99.90
53904;DHT22;39812;52.430;16.936;2022-10-22T15:48:01;13.70;99.90
53904;DHT22;39812;52.430;16.936;2022-10-22T15:50:26;13.70;99.90
53904;DHT22;39812;52.430;16.936;2022-10-22T15:52:52;13.80;99.90
53904;DHT22;39812;52.430;16.936;2022-10-22T15:55:18;13.80;99.90
53904;DHT22;39812;52.430;16.936;2022-10-22T15:57:44;13.80;99.90
53904;DHT22;39812;52.430;16.936;2022-10-22T16:00:10;13.80;99.90
53904;DHT22;39812;52.430;16.936;2022-10-22T16:02:35;13.80;99.90
53904;DHT22;39812;52.430;16.936;2022-10-22T16:05:01;13.80;99.90
53904;DHT22;39812;52.430;16.936;2022-10-22T16:07:26;13.80;99.90
53904;DHT22;39812;52.430;16.936;2022-10-22T16:09:57;13.80;99.90
53904;DHT22;39812;52.430;16.936;2022-10-22T16:12:24;13.90;99.90
53904;DHT22;39812;52.430;16.936;2022-10-22T16:14:49;13.80;99.90
53904;DHT22;39812;52.430;16.936;2022-10-22T16:17:15;13.90;99.90
53904;DHT22;39812;52.430;16.936;2022-10-22T16:19:41;13.90;99.90
53904;DHT22;39812;52.430;16.936;2022-10-22T16:22:08;13.90;99.90
53904;DHT22;39812;52.430;16.936;2022-10-22T16:24:36;13.90;99.90
53904;DHT22;39812;52.430;16.936;2022-10-22T16:27:05;13.90;99.90
53904;DHT22;39812;52.430;16.936;2022-10-22T16:29:30;13.90;99.90
53904;DHT22;39812;52.430;16.936;2022-10-22T16:31:56;13.90;99.90
53904;DHT22;39812;52.430;16.936;2022-10-22T16:34:21;14.00;99.90